Weather at Grand Bahama International Airport

Public forecast

Using degrees Celsius for public forecast. Weather courtesy of forecast.io.

Current aviation weather report (METAR) for Grand Bahama International Airport

Retrieved 2021/04/20 22:00 UTC (29 minutes ago):

MYGF 202200Z 22012KT 9999 FEW018 BKN180 BKN250 27/24 A2994

Aviation forecast (TAF) for Grand Bahama International Airport

Forecast is more than 12 hours old.

Retrieved 2021-04-20 00:30 UTC (22 hours ago):

TAF MYGF 192200Z 2000/2100 21015G25KT 4800 TSRA SCT015CB BKN020 PROB40 TEMPO 2009/2010 20006G20KT 8000 SHRA SCT015CB BKN030 FM201400 22015G25KT 9999 FEW018CB SCT025 BKN200